Terminal Aerodrome Forecast
Issued by NWS

Home | Current Version | Previous Version | Graphics & Text | Print | Product List | Glossary Off
Versions: 1 2 3 4 5 6 7 8 9 10 11 12 13

000
FTUS43 KABR 221500 AAA
TAFMBG
TAF AMD
KMBG 221528Z 2215/2312 14012KT P6SM FEW300
     FM221700 15015G22KT P6SM SCT300
     FM230200 14012KT P6SM BKN130=

USA.gov is the U.S. government's official web portal to all federal, state and local government web resources and services.